Time;durP1;ratioP1;P1;durP2;ratioP2;P2;SDS_P1;SDS_P2;PMS_P1;PMS_P2;Temp;Humidity;BMP_temperature;BMP_pressure;BME280_temperature;BME280_humidity;BME280_pressure;Samples;Min_cycle;Max_cycle;Signal;HPM_P1;HPM_P2
2024/03/26 00:01:32;;;;;;;6.65;4.60;;;12.80;56.60;;;;;;5068634;28;20066;-60
2024/03/26 00:04:17;;;;;;;4.65;2.95;;;12.80;56.60;;;;;;5074988;28;20600;-60
2024/03/26 00:07:01;;;;;;;6.45;3.33;;;12.80;56.60;;;;;;5067180;28;20498;-60
2024/03/26 00:09:46;;;;;;;9.68;3.47;;;12.80;56.70;;;;;;5067073;28;20074;-60
2024/03/26 00:12:31;;;;;;;5.45;3.45;;;12.80;56.80;;;;;;5078815;28;20039;-60
2024/03/26 00:15:16;;;;;;;7.57;4.20;;;12.70;57.20;;;;;;5081421;28;20042;-60
2024/03/26 00:18:00;;;;;;;6.10;3.53;;;12.70;56.60;;;;;;5076499;28;20062;-60
2024/03/26 00:20:45;;;;;;;7.90;4.00;;;12.70;56.70;;;;;;5079774;28;20047;-60
2024/03/26 00:23:29;;;;;;;8.15;4.15;;;12.70;56.70;;;;;;5064322;28;20033;-59
2024/03/26 00:26:14;;;;;;;6.22;3.33;;;12.70;56.70;;;;;;5067208;28;20040;-59
2024/03/26 00:28:58;;;;;;;7.07;3.85;;;12.70;56.70;;;;;;5069974;28;20097;-59
2024/03/26 00:31:43;;;;;;;4.32;3.22;;;12.70;56.80;;;;;;5074398;28;20373;-59
2024/03/26 00:34:27;;;;;;;5.60;3.38;;;12.70;56.90;;;;;;5079739;28;20178;-60
2024/03/26 00:37:12;;;;;;;5.00;2.72;;;12.70;56.90;;;;;;5070860;28;20066;-59
2024/03/26 00:39:57;;;;;;;7.07;4.57;;;12.70;57.00;;;;;;5067551;28;20047;-60
2024/03/26 00:42:41;;;;;;;6.82;3.15;;;12.60;56.80;;;;;;5081062;28;20051;-60
2024/03/26 00:45:26;;;;;;;4.82;3.90;;;12.60;56.90;;;;;;5084145;28;20432;-59
2024/03/26 00:48:10;;;;;;;6.00;3.53;;;12.60;56.90;;;;;;5067551;28;21634;-60
2024/03/26 00:50:55;;;;;;;6.63;3.20;;;12.60;57.00;;;;;;5075285;28;20035;-59
2024/03/26 00:53:40;;;;;;;4.63;3.17;;;12.60;57.00;;;;;;5058256;28;20035;-60
2024/03/26 00:56:24;;;;;;;5.68;3.35;;;12.60;57.10;;;;;;5083259;28;20108;-60
2024/03/26 00:59:09;;;;;;;5.13;3.55;;;12.60;57.10;;;;;;5085280;28;20590;-60
2024/03/26 01:01:55;;;;;;;6.47;3.55;;;12.60;57.20;;;;;;5066957;28;20120;-60
2024/03/26 01:04:39;;;;;;;5.40;3.05;;;12.60;57.20;;;;;;5072817;28;20058;-60
2024/03/26 01:07:24;;;;;;;6.80;2.85;;;12.50;57.10;;;;;;5067612;28;20067;-60
2024/03/26 01:10:08;;;;;;;6.78;2.85;;;12.60;57.30;;;;;;5068915;28;20085;-60
2024/03/26 01:12:53;;;;;;;9.60;3.47;;;12.60;57.90;;;;;;5073353;28;20096;-60
2024/03/26 01:15:38;;;;;;;5.55;3.22;;;12.50;57.10;;;;;;5073007;28;20322;-59
2024/03/26 01:18:22;;;;;;;8.23;3.67;;;12.50;57.20;;;;;;5054257;28;20546;-59
2024/03/26 01:21:07;;;;;;;6.22;3.17;;;12.50;57.20;;;;;;5067912;28;20039;-60
2024/03/26 01:23:51;;;;;;;6.32;2.88;;;12.50;57.20;;;;;;5073989;28;20554;-61
2024/03/26 01:26:36;;;;;;;7.53;3.17;;;12.50;57.20;;;;;;5069975;28;20055;-59
2024/03/26 01:29:20;;;;;;;5.03;2.90;;;12.50;57.20;;;;;;5075223;28;20486;-60
2024/03/26 01:32:05;;;;;;;5.43;3.08;;;12.40;57.10;;;;;;5063892;28;20116;-59
2024/03/26 01:34:53;;;;;;;6.63;2.88;;;12.40;57.10;;;;;;5074543;28;20117;-64
2024/03/26 01:37:37;;;;;;;5.68;3.30;;;12.40;57.20;;;;;;5068612;28;20129;-60
2024/03/26 01:40:25;;;;;;;5.82;2.85;;;12.40;57.20;;;;;;5083497;28;20092;-59
2024/03/26 01:43:10;;;;;;;5.55;3.10;;;12.40;57.20;;;;;;5075629;28;20046;-59
2024/03/26 01:45:55;;;;;;;5.75;2.97;;;12.40;57.20;;;;;;5065866;27;20180;-60
2024/03/26 01:48:40;;;;;;;5.50;3.25;;;12.40;57.30;;;;;;5072827;28;20112;-60
2024/03/26 01:51:25;;;;;;;4.78;2.63;;;12.40;57.30;;;;;;5057390;28;20040;-59
2024/03/26 01:54:10;;;;;;;6.15;3.10;;;12.30;57.10;;;;;;5066692;28;20080;-59
2024/03/26 01:56:56;;;;;;;5.18;3.40;;;12.30;57.20;;;;;;5060452;28;20066;-60
2024/03/26 01:59:42;;;;;;;6.13;3.60;;;12.30;57.20;;;;;;5073257;28;20065;-60
2024/03/26 02:02:26;;;;;;;6.05;3.05;;;12.30;57.30;;;;;;5073272;28;20483;-59
2024/03/26 02:05:11;;;;;;;6.47;3.35;;;12.30;57.30;;;;;;5079164;28;20408;-60
2024/03/26 02:07:56;;;;;;;5.20;3.05;;;12.30;57.30;;;;;;5067672;28;20039;-60
2024/03/26 02:10:41;;;;;;;5.15;2.95;;;12.30;57.40;;;;;;5058190;28;20036;-60
2024/03/26 02:13:26;;;;;;;4.40;2.80;;;12.30;57.40;;;;;;5080036;28;20535;-59
2024/03/26 02:16:10;;;;;;;6.15;2.83;;;12.30;57.40;;;;;;5083759;28;20046;-59
2024/03/26 02:18:55;;;;;;;5.07;2.90;;;12.30;57.50;;;;;;5070571;28;20063;-59
2024/03/26 02:21:40;;;;;;;4.95;3.08;;;12.30;57.50;;;;;;5076590;28;20551;-59
2024/03/26 02:24:25;;;;;;;6.72;3.65;;;12.30;57.50;;;;;;5068929;28;20051;-60
2024/03/26 02:27:09;;;;;;;6.72;2.83;;;12.30;57.50;;;;;;5069194;28;20043;-59
2024/03/26 02:29:54;;;;;;;5.82;3.00;;;12.30;57.50;;;;;;5070250;28;20030;-59
2024/03/26 02:32:39;;;;;;;5.03;2.88;;;12.20;57.40;;;;;;5080320;28;20110;-59
2024/03/26 02:35:23;;;;;;;5.15;3.10;;;12.20;57.40;;;;;;5080032;28;20235;-59
2024/03/26 02:38:08;;;;;;;4.43;2.80;;;12.20;57.50;;;;;;5063886;28;20580;-59
2024/03/26 02:40:53;;;;;;;5.30;3.15;;;12.20;57.50;;;;;;5070918;28;20031;-61
2024/03/26 02:43:40;;;;;;;5.70;3.03;;;12.20;57.60;;;;;;5090617;28;20155;-59
2024/03/26 02:46:25;;;;;;;5.50;3.03;;;12.20;57.60;;;;;;5069978;28;20052;-60
2024/03/26 02:49:09;;;;;;;6.75;3.33;;;12.20;57.70;;;;;;5082534;28;20113;-59
2024/03/26 02:51:54;;;;;;;5.18;3.20;;;12.20;57.70;;;;;;5063925;28;20101;-59
2024/03/26 02:54:38;;;;;;;8.07;3.40;;;12.20;57.70;;;;;;5072599;28;20117;-60
2024/03/26 02:57:23;;;;;;;4.38;2.85;;;12.20;57.80;;;;;;5075572;28;20735;-61
2024/03/26 03:00:09;;;;;;;5.75;3.35;;;12.20;57.80;;;;;;5071990;28;20420;-60
2024/03/26 03:02:53;;;;;;;6.43;2.80;;;12.20;57.80;;;;;;5076102;28;20318;-60
2024/03/26 03:05:40;;;;;;;4.88;2.97;;;12.20;57.80;;;;;;5072631;28;20100;-60
2024/03/26 03:08:24;;;;;;;5.63;3.10;;;12.20;57.80;;;;;;5083685;28;20605;-61
2024/03/26 03:11:09;;;;;;;5.57;3.28;;;12.20;57.80;;;;;;5080633;28;20074;-60
2024/03/26 03:13:53;;;;;;;5.63;3.38;;;12.10;57.70;;;;;;5063007;28;20035;-62
2024/03/26 03:16:38;;;;;;;5.93;3.50;;;12.20;57.90;;;;;;5078332;28;20093;-65
2024/03/26 03:19:23;;;;;;;4.88;3.10;;;12.20;58.00;;;;;;5067363;28;20105;-63
2024/03/26 03:22:07;;;;;;;4.65;3.38;;;12.10;57.80;;;;;;5060255;28;20279;-63
2024/03/26 03:24:52;;;;;;;9.23;3.60;;;12.10;57.80;;;;;;5072488;28;20097;-63
2024/03/26 03:27:37;;;;;;;5.45;2.65;;;12.10;57.90;;;;;;5065010;28;20653;-64
2024/03/26 03:30:21;;;;;;;8.82;4.55;;;12.10;57.90;;;;;;5059859;28;20438;-63
2024/03/26 03:33:05;;;;;;;5.78;3.38;;;12.10;58.00;;;;;;5069464;28;20127;-65
2024/03/26 03:35:50;;;;;;;5.18;3.83;;;12.10;58.00;;;;;;5075469;28;20353;-62
2024/03/26 03:38:35;;;;;;;6.93;3.67;;;12.00;57.90;;;;;;5079847;28;20042;-62
2024/03/26 03:41:19;;;;;;;5.15;3.60;;;12.00;57.90;;;;;;5075393;28;20074;-62
2024/03/26 03:44:04;;;;;;;5.45;2.88;;;12.00;58.00;;;;;;5069729;28;20058;-62
2024/03/26 03:46:49;;;;;;;8.13;3.75;;;12.00;58.00;;;;;;5083153;28;20469;-61
2024/03/26 03:49:34;;;;;;;8.70;4.10;;;12.00;58.10;;;;;;5073344;28;20112;-61
2024/03/26 03:52:19;;;;;;;3.50;3.20;;;12.00;58.10;;;;;;5070916;28;20506;-62
2024/03/26 03:55:03;;;;;;;5.95;3.53;;;11.90;58.00;;;;;;5072762;28;20046;-61
2024/03/26 03:57:48;;;;;;;6.68;3.08;;;11.90;58.00;;;;;;5071340;28;20054;-62
2024/03/26 04:00:33;;;;;;;6.32;3.63;;;11.90;58.00;;;;;;5065345;28;20063;-61
2024/03/26 04:03:17;;;;;;;6.88;3.25;;;11.90;58.10;;;;;;5069160;28;20182;-61
2024/03/26 04:06:03;;;;;;;8.05;3.78;;;11.90;58.10;;;;;;5074878;28;20116;-61
2024/03/26 04:08:51;;;;;;;4.95;3.35;;;11.90;58.20;;;;;;5086658;28;20463;-61
2024/03/26 04:11:36;;;;;;;5.68;2.85;;;11.80;58.10;;;;;;5078323;28;20031;-61
2024/03/26 04:14:20;;;;;;;5.00;3.53;;;11.80;58.10;;;;;;5084875;28;20034;-61
2024/03/26 04:17:05;;;;;;;5.18;3.20;;;11.80;58.10;;;;;;5066907;28;20536;-56
2024/03/26 04:19:49;;;;;;;9.50;3.95;;;11.80;58.20;;;;;;5076775;28;20042;-61
2024/03/26 04:22:34;;;;;;;8.57;3.67;;;11.80;58.20;;;;;;5073382;28;20693;-61
2024/03/26 04:25:18;;;;;;;9.73;3.38;;;11.80;58.30;;;;;;5065530;28;20051;-60
2024/03/26 04:28:03;;;;;;;6.97;2.88;;;11.80;58.30;;;;;;5072118;28;20106;-60
2024/03/26 04:30:47;;;;;;;5.72;3.13;;;11.80;58.30;;;;;;5074912;28;20093;-60
2024/03/26 04:33:32;;;;;;;5.05;3.38;;;11.80;58.40;;;;;;5068696;28;20132;-60
2024/03/26 04:36:17;;;;;;;6.55;3.63;;;11.80;58.40;;;;;;5082726;28;20062;-60
2024/03/26 04:39:03;;;;;;;5.43;3.03;;;11.70;58.30;;;;;;5082299;28;20411;-61
2024/03/26 04:41:47;;;;;;;7.55;3.90;;;11.70;58.30;;;;;;5063169;28;20030;-60
2024/03/26 04:44:32;;;;;;;8.52;3.38;;;11.70;58.30;;;;;;5086142;28;20405;-60
2024/03/26 04:47:16;;;;;;;5.95;3.22;;;11.80;58.60;;;;;;5091297;28;20058;-60
2024/03/26 04:50:01;;;;;;;6.60;3.55;;;11.70;58.40;;;;;;5065888;28;20312;-61
2024/03/26 04:52:45;;;;;;;6.18;3.22;;;11.70;58.40;;;;;;5079577;28;20047;-60
2024/03/26 04:55:30;;;;;;;4.53;3.20;;;11.70;58.40;;;;;;5077813;28;20117;-59
2024/03/26 04:58:15;;;;;;;7.63;3.75;;;11.70;58.50;;;;;;5071480;28;20167;-60
2024/03/26 05:00:59;;;;;;;6.22;3.35;;;11.70;58.50;;;;;;5066754;28;20124;-61
2024/03/26 05:03:44;;;;;;;5.65;3.60;;;11.60;58.30;;;;;;5072654;28;20559;-58
2024/03/26 05:06:28;;;;;;;6.50;3.95;;;11.70;58.50;;;;;;5082859;28;20038;-60
2024/03/26 05:09:13;;;;;;;8.15;3.60;;;11.70;58.50;;;;;;5069651;28;20038;-60
2024/03/26 05:11:57;;;;;;;5.43;3.13;;;11.60;58.40;;;;;;5069542;28;20043;-60
2024/03/26 05:14:42;;;;;;;5.65;3.75;;;11.60;58.40;;;;;;5077790;28;20754;-60
2024/03/26 05:17:26;;;;;;;6.80;4.00;;;11.60;58.40;;;;;;5070835;28;20034;-59
2024/03/26 05:20:11;;;;;;;6.50;3.92;;;11.60;58.40;;;;;;5064077;28;20425;-59
2024/03/26 05:22:56;;;;;;;7.05;3.50;;;11.60;58.50;;;;;;5055310;28;20051;-60
2024/03/26 05:25:40;;;;;;;6.13;3.80;;;11.60;58.50;;;;;;5063134;28;20047;-59
2024/03/26 05:28:25;;;;;;;5.65;3.38;;;11.60;58.50;;;;;;5076853;28;20115;-59
2024/03/26 05:31:18;;;;;;;5.97;3.15;;;11.60;58.50;;;;;;5072403;28;20397;-60
2024/03/26 05:34:02;;;;;;;6.20;3.33;;;11.60;58.60;;;;;;5073651;28;20318;-59
2024/03/26 05:36:47;;;;;;;6.82;3.20;;;11.60;58.60;;;;;;5075844;28;20039;-60
2024/03/26 05:39:31;;;;;;;6.07;2.90;;;11.60;58.60;;;;;;5073066;28;20394;-59
2024/03/26 05:42:16;;;;;;;5.25;3.42;;;11.50;58.50;;;;;;5068464;28;20101;-59
2024/03/26 05:45:00;;;;;;;8.13;3.60;;;11.50;58.50;;;;;;5075709;28;20038;-59
2024/03/26 05:47:45;;;;;;;5.85;3.22;;;11.50;58.60;;;;;;5068724;28;20035;-60
2024/03/26 05:50:30;;;;;;;5.53;3.40;;;11.50;58.60;;;;;;5062707;28;20100;-59
2024/03/26 05:53:14;;;;;;;7.05;3.47;;;11.50;58.70;;;;;;5075963;28;20083;-57
2024/03/26 05:55:59;;;;;;;5.18;3.42;;;11.50;58.70;;;;;;5068684;28;20675;-60
2024/03/26 05:58:44;;;;;;;6.15;3.47;;;11.50;58.70;;;;;;5070827;28;20145;-60
2024/03/26 06:01:28;;;;;;;6.47;3.67;;;11.60;58.90;;;;;;5062598;28;20046;-60
2024/03/26 06:04:12;;;;;;;4.32;3.35;;;11.60;58.90;;;;;;5068390;28;20039;-60
2024/03/26 06:06:57;;;;;;;5.35;3.20;;;11.50;58.80;;;;;;5074615;28;20035;-60
2024/03/26 06:09:42;;;;;;;6.70;3.47;;;11.60;59.00;;;;;;5080103;28;20034;-61
2024/03/26 06:12:26;;;;;;;6.47;3.42;;;11.60;59.00;;;;;;5060394;28;20606;-61
2024/03/26 06:15:11;;;;;;;4.57;3.08;;;11.60;59.00;;;;;;5068687;28;20047;-60
2024/03/26 06:17:56;;;;;;;7.70;3.50;;;11.60;59.10;;;;;;5076109;28;20515;-60
2024/03/26 06:20:41;;;;;;;9.73;3.75;;;11.60;59.10;;;;;;5069355;28;20092;-60
2024/03/26 06:23:25;;;;;;;6.38;3.35;;;11.60;59.10;;;;;;5065297;28;20039;-60
2024/03/26 06:26:10;;;;;;;10.00;4.85;;;11.60;59.10;;;;;;5069824;28;20090;-60
2024/03/26 06:28:55;;;;;;;4.90;3.28;;;11.60;59.20;;;;;;5075858;28;20105;-60
2024/03/26 06:31:40;;;;;;;4.32;3.15;;;11.60;59.20;;;;;;5073558;28;20047;-60
2024/03/26 06:34:24;;;;;;;5.57;3.45;;;11.60;59.20;;;;;;5076359;28;20059;-61
2024/03/26 06:37:09;;;;;;;5.68;4.03;;;11.60;59.30;;;;;;5060881;28;20123;-60
2024/03/26 06:39:54;;;;;;;4.82;3.17;;;11.60;59.30;;;;;;5063741;28;20078;-60
2024/03/26 06:42:39;;;;;;;5.57;3.30;;;11.60;59.30;;;;;;5061675;28;20412;-60
2024/03/26 06:45:23;;;;;;;5.88;3.85;;;11.70;59.50;;;;;;5069913;28;20043;-61
2024/03/26 06:48:08;;;;;;;5.80;4.00;;;11.70;59.50;;;;;;5068381;28;20108;-60
2024/03/26 06:50:53;;;;;;;7.05;3.50;;;11.70;59.50;;;;;;5070214;28;20276;-60
2024/03/26 06:53:37;;;;;;;6.50;3.25;;;11.70;59.40;;;;;;5081622;28;20113;-60
2024/03/26 06:56:23;;;;;;;4.50;2.97;;;11.70;59.50;;;;;;5077874;28;20083;-60
2024/03/26 06:59:08;;;;;;;4.80;2.97;;;11.70;59.40;;;;;;5048175;28;20375;-60
2024/03/26 07:01:53;;;;;;;6.70;3.80;;;11.80;59.60;;;;;;5054083;28;20027;-60
2024/03/26 07:04:38;;;;;;;9.23;3.95;;;11.80;59.50;;;;;;5046158;28;20040;-61
2024/03/26 07:07:22;;;;;;;5.10;3.25;;;11.80;60.10;;;;;;5049617;28;20074;-60
2024/03/26 07:10:08;;;;;;;8.32;3.65;;;11.80;59.50;;;;;;5044074;28;20120;-60
2024/03/26 07:12:52;;;;;;;5.82;3.53;;;11.80;59.50;;;;;;5067855;28;20145;-60
2024/03/26 07:15:37;;;;;;;7.40;3.75;;;11.90;59.60;;;;;;5068184;28;20051;-60
2024/03/26 07:18:22;;;;;;;5.90;3.63;;;11.90;59.60;;;;;;5051944;28;20147;-60
2024/03/26 07:21:06;;;;;;;5.50;3.38;;;11.90;59.60;;;;;;5042736;28;20058;-61
2024/03/26 07:23:52;;;;;;;7.47;3.90;;;11.90;59.60;;;;;;5043320;28;20594;-60
2024/03/26 07:26:36;;;;;;;7.93;3.72;;;11.90;59.60;;;;;;5054117;28;20051;-60
2024/03/26 07:29:21;;;;;;;6.07;3.63;;;12.00;59.80;;;;;;5053977;28;20086;-60
2024/03/26 07:32:06;;;;;;;5.00;3.92;;;12.00;59.80;;;;;;5049597;28;20036;-60
2024/03/26 07:34:51;;;;;;;4.25;3.70;;;12.00;59.80;;;;;;5055619;28;20553;-60
2024/03/26 07:37:35;;;;;;;7.47;3.45;;;12.10;60.00;;;;;;5048923;28;20117;-61
2024/03/26 07:40:20;;;;;;;7.75;3.85;;;12.10;60.00;;;;;;5053290;28;20028;-60
2024/03/26 07:43:04;;;;;;;5.90;3.60;;;12.10;60.00;;;;;;5048425;28;20544;-61
2024/03/26 07:45:49;;;;;;;5.13;3.45;;;12.10;60.00;;;;;;5049174;28;20177;-60
2024/03/26 07:48:34;;;;;;;7.78;3.50;;;12.20;60.10;;;;;;5044860;28;20052;-61
2024/03/26 07:51:18;;;;;;;6.15;3.45;;;12.20;60.10;;;;;;5060277;28;20614;-61
2024/03/26 07:54:03;;;;;;;5.97;3.15;;;12.20;60.00;;;;;;5052973;28;20055;-60
2024/03/26 07:56:47;;;;;;;5.07;3.15;;;12.20;59.90;;;;;;5061789;28;20807;-60
2024/03/26 07:59:32;;;;;;;4.60;2.97;;;12.20;59.90;;;;;;5072814;28;20564;-60
2024/03/26 08:02:16;;;;;;;6.50;3.58;;;12.30;60.00;;;;;;5065489;28;20051;-61
2024/03/26 08:05:01;;;;;;;5.95;3.50;;;12.30;59.90;;;;;;5072685;28;20038;-61
2024/03/26 08:07:46;;;;;;;6.45;3.50;;;12.30;59.80;;;;;;5076062;28;20112;-60
2024/03/26 08:10:31;;;;;;;7.05;3.28;;;12.30;59.70;;;;;;5079053;28;20055;-61
2024/03/26 08:13:15;;;;;;;3.95;3.55;;;12.30;59.70;;;;;;5071028;28;20188;-61
2024/03/26 08:16:00;;;;;;;9.05;3.83;;;12.40;59.80;;;;;;5068582;28;20329;-61
2024/03/26 08:18:44;;;;;;;4.95;3.58;;;12.40;59.80;;;;;;5073797;28;20127;-60
2024/03/26 08:21:29;;;;;;;4.35;3.65;;;12.40;59.80;;;;;;5066304;28;20133;-60
2024/03/26 08:24:14;;;;;;;6.35;3.53;;;12.40;59.70;;;;;;5051434;28;20121;-61
2024/03/26 08:26:59;;;;;;;4.88;3.20;;;12.40;59.70;;;;;;5066601;28;20047;-62
2024/03/26 08:29:44;;;;;;;5.63;3.25;;;12.40;59.60;;;;;;5071449;28;20193;-62
2024/03/26 08:32:29;;;;;;;5.22;3.85;;;12.40;59.60;;;;;;5070389;28;20047;-61
2024/03/26 08:35:13;;;;;;;5.47;3.22;;;12.40;59.50;;;;;;5065073;28;20051;-60
2024/03/26 08:37:58;;;;;;;5.88;3.42;;;12.50;59.70;;;;;;5060224;28;20067;-60
2024/03/26 08:40:43;;;;;;;6.55;3.05;;;12.50;59.60;;;;;;5076565;28;20043;-61
2024/03/26 08:43:28;;;;;;;4.13;3.33;;;12.50;59.60;;;;;;5076438;28;20172;-61
2024/03/26 08:46:13;;;;;;;5.55;3.53;;;12.50;59.50;;;;;;5063529;28;20047;-61
2024/03/26 08:48:58;;;;;;;3.97;3.15;;;12.50;59.50;;;;;;5072369;28;20046;-60
2024/03/26 08:51:43;;;;;;;6.03;3.88;;;12.60;59.80;;;;;;5080331;28;20126;-61
2024/03/26 08:54:27;;;;;;;6.93;3.25;;;12.60;60.00;;;;;;5069601;28;20058;-61
2024/03/26 08:57:15;;;;;;;4.55;3.20;;;12.60;60.10;;;;;;5066979;28;20043;-60
2024/03/26 08:59:59;;;;;;;5.40;3.05;;;12.70;60.30;;;;;;5065312;28;20156;-61
2024/03/26 09:02:44;;;;;;;7.38;3.70;;;12.70;60.30;;;;;;5067331;28;20035;-61
2024/03/26 09:05:29;;;;;;;6.35;4.50;;;12.80;60.50;;;;;;5081613;28;20703;-61
2024/03/26 09:08:14;;;;;;;5.85;3.53;;;12.80;60.40;;;;;;5071146;28;20713;-61
2024/03/26 09:10:58;;;;;;;5.95;4.35;;;12.90;60.50;;;;;;5067531;28;20043;-61
2024/03/26 09:13:44;;;;;;;7.10;4.82;;;13.00;60.50;;;;;;5063048;28;20122;-61
2024/03/26 09:16:29;;;;;;;5.00;3.95;;;13.10;60.60;;;;;;5081313;28;20916;-64
2024/03/26 09:19:13;;;;;;;9.60;4.45;;;13.20;60.60;;;;;;5072520;28;20031;-61
2024/03/26 09:21:58;;;;;;;6.65;3.78;;;13.20;60.40;;;;;;5053533;28;20510;-61
2024/03/26 09:24:42;;;;;;;5.45;4.03;;;13.40;60.60;;;;;;5063244;28;20058;-61
2024/03/26 09:27:27;;;;;;;7.75;4.45;;;13.50;60.60;;;;;;5079793;28;20117;-59
2024/03/26 09:30:13;;;;;;;5.80;3.50;;;13.60;60.60;;;;;;5068042;28;20039;-61
2024/03/26 09:32:57;;;;;;;6.32;3.63;;;13.70;61.10;;;;;;5064282;28;20117;-61
2024/03/26 09:35:42;;;;;;;5.60;3.92;;;13.80;60.50;;;;;;5089174;27;20125;-61
2024/03/26 09:38:26;;;;;;;7.15;4.03;;;13.90;60.50;;;;;;5083532;28;20100;-61
2024/03/26 09:41:11;;;;;;;6.68;3.78;;;14.00;60.40;;;;;;5065029;28;20047;-61
2024/03/26 09:43:56;;;;;;;4.88;3.45;;;14.10;60.40;;;;;;5063436;28;20078;-61
2024/03/26 09:46:42;;;;;;;6.60;4.50;;;14.20;60.40;;;;;;5077148;28;20035;-61
2024/03/26 09:49:28;;;;;;;5.07;3.10;;;14.30;60.40;;;;;;5056732;28;20047;-60
2024/03/26 09:52:14;;;;;;;8.63;3.45;;;14.40;60.40;;;;;;5072339;27;20051;-61
2024/03/26 09:55:00;;;;;;;8.48;3.78;;;14.60;60.50;;;;;;5066680;28;20090;-62
2024/03/26 09:57:44;;;;;;;6.40;3.75;;;14.70;60.40;;;;;;5079173;28;20047;-61
2024/03/26 10:00:31;;;;;;;7.38;3.47;;;14.80;60.90;;;;;;5070517;28;20315;-61
2024/03/26 10:03:20;;;;;;;5.00;3.47;;;15.00;60.50;;;;;;5079833;28;20564;-61
2024/03/26 10:06:05;;;;;;;6.35;3.75;;;15.10;60.20;;;;;;5059532;28;20058;-61
2024/03/26 10:08:52;;;;;;;3.63;3.00;;;15.30;60.20;;;;;;5069920;28;20127;-61
2024/03/26 10:11:36;;;;;;;5.15;3.20;;;15.60;60.40;;;;;;5071947;28;20548;-61
2024/03/26 10:14:21;;;;;;;4.70;3.40;;;15.70;60.10;;;;;;5070983;28;20103;-62
2024/03/26 10:17:06;;;;;;;4.25;3.03;;;16.00;60.20;;;;;;5077718;28;20050;-61
2024/03/26 10:19:52;;;;;;;6.43;3.08;;;16.10;59.90;;;;;;5064602;28;20190;-61
2024/03/26 10:22:37;;;;;;;6.65;3.53;;;16.30;59.90;;;;;;5066063;28;20094;-61
2024/03/26 10:25:22;;;;;;;6.43;3.22;;;16.30;59.50;;;;;;5077833;28;20039;-63
2024/03/26 10:28:06;;;;;;;5.32;3.28;;;16.40;59.40;;;;;;5067781;28;20552;-61
2024/03/26 10:30:52;;;;;;;5.28;2.90;;;16.40;59.20;;;;;;5068960;28;20051;-61
2024/03/26 10:33:38;;;;;;;7.38;2.95;;;16.50;59.30;;;;;;5069415;28;20133;-62
2024/03/26 10:36:25;;;;;;;7.65;3.13;;;16.50;59.20;;;;;;5069858;28;20077;-61
2024/03/26 10:39:13;;;;;;;5.25;3.40;;;16.60;59.10;;;;;;5067039;28;20193;-61
2024/03/26 10:42:00;;;;;;;6.68;3.50;;;16.70;59.00;;;;;;5077232;28;20043;-61
2024/03/26 10:44:47;;;;;;;5.68;3.28;;;16.80;58.90;;;;;;5068015;28;20040;-61
2024/03/26 10:47:33;;;;;;;5.78;2.65;;;16.80;58.60;;;;;;5069899;28;20683;-61
2024/03/26 10:50:18;;;;;;;5.68;2.80;;;16.90;58.60;;;;;;5070485;28;20071;-61
2024/03/26 10:53:04;;;;;;;6.10;3.28;;;16.90;58.50;;;;;;5065623;28;20381;-62
2024/03/26 10:55:50;;;;;;;5.55;2.80;;;17.00;58.30;;;;;;5074825;28;20092;-60
2024/03/26 10:58:35;;;;;;;4.45;2.70;;;17.00;58.10;;;;;;5061589;28;20114;-60
2024/03/26 11:01:21;;;;;;;5.30;3.05;;;17.00;58.00;;;;;;5064196;28;20039;-60
2024/03/26 11:04:05;;;;;;;4.57;3.30;;;17.00;57.90;;;;;;5082032;28;20047;-60
2024/03/26 11:06:51;;;;;;;3.17;2.83;;;17.00;57.80;;;;;;5071840;28;20101;-60
2024/03/26 11:09:35;;;;;;;6.55;3.10;;;16.90;57.70;;;;;;5076380;28;20039;-61
2024/03/26 11:12:22;;;;;;;4.90;3.13;;;16.90;57.60;;;;;;5074778;28;20039;-61
2024/03/26 11:15:31;;;;;;;3.50;2.53;;;16.80;57.30;;;;;;5077985;28;20047;-60
2024/03/26 11:18:27;;;;;;;5.03;2.83;;;16.80;57.10;;;;;;5065577;28;20074;-60
2024/03/26 11:21:12;;;;;;;5.28;2.60;;;16.80;57.30;;;;;;5081214;28;20059;-60
2024/03/26 11:23:58;;;;;;;4.45;2.80;;;16.80;57.30;;;;;;5069478;28;20119;-61
2024/03/26 11:26:42;;;;;;;4.45;2.97;;;16.80;57.20;;;;;;5070996;28;20337;-60
2024/03/26 11:29:29;;;;;;;4.65;2.80;;;16.80;57.10;;;;;;5068541;28;20090;-61
2024/03/26 11:32:14;;;;;;;4.13;2.60;;;16.90;57.20;;;;;;5078202;28;20131;-61
2024/03/26 11:35:32;;;;;;;4.18;2.40;;;16.90;57.00;;;;;;5068612;28;20078;-60
2024/03/26 11:38:17;;;;;;;4.55;2.47;;;17.00;56.90;;;;;;5067704;28;20186;-64
2024/03/26 11:41:02;;;;;;;3.83;2.75;;;17.10;57.10;;;;;;5074108;28;20043;-60
2024/03/26 11:43:48;;;;;;;4.75;2.67;;;17.30;57.10;;;;;;5062542;28;20035;-60
2024/03/26 11:46:32;;;;;;;3.22;2.20;;;17.40;57.00;;;;;;5070200;28;20047;-60
2024/03/26 11:49:17;;;;;;;3.08;2.10;;;17.60;57.00;;;;;;5073842;28;20107;-60
2024/03/26 11:52:02;;;;;;;3.80;2.60;;;17.70;56.80;;;;;;5062580;28;20815;-60
2024/03/26 11:54:47;;;;;;;3.30;2.45;;;17.90;56.80;;;;;;5069700;28;20129;-59
2024/03/26 11:57:32;;;;;;;3.83;2.08;;;18.10;56.90;;;;;;5074167;28;20040;-60
2024/03/26 12:00:17;;;;;;;2.97;1.95;;;18.20;56.60;;;;;;5073572;28;20124;-61
2024/03/26 12:03:01;;;;;;;3.10;2.53;;;18.40;56.70;;;;;;5078708;28;20402;-61
2024/03/26 12:05:46;;;;;;;5.20;2.15;;;18.50;56.40;;;;;;5074425;28;20320;-60
2024/03/26 12:08:31;;;;;;;3.78;2.33;;;18.70;56.50;;;;;;5071969;28;20556;-61
2024/03/26 12:11:16;;;;;;;4.50;2.28;;;18.80;56.30;;;;;;5065295;28;20228;-62
2024/03/26 12:14:00;;;;;;;2.65;1.65;;;18.90;56.20;;;;;;5076019;28;20044;-60
2024/03/26 12:16:45;;;;;;;3.50;1.98;;;19.00;56.10;;;;;;5068728;28;20055;-58
2024/03/26 12:19:30;;;;;;;3.08;1.60;;;19.10;56.00;;;;;;5075910;28;20536;-60
2024/03/26 12:22:19;;;;;;;4.25;1.52;;;19.20;55.90;;;;;;5072278;28;20141;-60
2024/03/26 12:25:08;;;;;;;2.80;1.80;;;19.30;55.70;;;;;;5065546;28;20083;-61
2024/03/26 12:27:52;;;;;;;1.67;1.00;;;19.40;55.70;;;;;;5074250;28;20042;-60
2024/03/26 12:30:37;;;;;;;2.22;1.00;;;19.50;55.70;;;;;;5078449;28;20035;-61
2024/03/26 12:33:22;;;;;;;2.95;1.20;;;19.70;55.80;;;;;;5074071;28;20165;-61
2024/03/26 12:36:09;;;;;;;2.00;1.17;;;19.80;55.70;;;;;;5068480;28;20050;-62
2024/03/26 12:38:53;;;;;;;8.65;2.30;;;19.90;55.50;;;;;;5067938;28;20054;-61
2024/03/26 12:41:38;;;;;;;1.73;1.20;;;20.10;55.60;;;;;;5071278;28;20132;-61
2024/03/26 12:44:25;;;;;;;1.77;1.02;;;20.10;55.80;;;;;;5073991;28;20043;-61
2024/03/26 12:47:09;;;;;;;3.97;1.10;;;20.20;55.10;;;;;;5071937;28;20236;-62
2024/03/26 12:49:55;;;;;;;3.17;1.25;;;20.20;54.80;;;;;;5073929;28;20547;-62
2024/03/26 12:52:41;;;;;;;2.88;1.30;;;20.30;54.80;;;;;;5069817;28;20051;-63
2024/03/26 12:55:26;;;;;;;2.15;1.40;;;20.30;54.60;;;;;;5073312;28;20561;-61
2024/03/26 12:58:11;;;;;;;1.98;1.05;;;20.40;54.60;;;;;;5073861;28;20619;-62
2024/03/26 13:00:55;;;;;;;3.38;1.40;;;20.40;54.30;;;;;;5070979;28;20062;-61
2024/03/26 13:03:39;;;;;;;1.42;1.23;;;20.50;54.30;;;;;;5066809;28;20078;-61
2024/03/26 13:06:24;;;;;;;2.60;1.17;;;20.50;54.00;;;;;;5064662;28;20478;-62
2024/03/26 13:09:09;;;;;;;1.95;1.17;;;20.60;54.10;;;;;;5064640;28;20586;-62
2024/03/26 13:11:53;;;;;;;1.90;1.30;;;20.60;53.90;;;;;;5077601;28;20529;-62
2024/03/26 13:14:38;;;;;;;2.33;1.10;;;20.60;54.30;;;;;;5066587;28;20128;-61
2024/03/26 13:17:22;;;;;;;3.50;1.35;;;20.70;53.80;;;;;;5070800;28;20235;-60
2024/03/26 13:20:09;;;;;;;2.13;1.40;;;20.70;53.60;;;;;;5079298;28;20122;-61
2024/03/26 13:22:53;;;;;;;3.67;1.55;;;20.80;53.60;;;;;;5066227;28;20046;-62
2024/03/26 13:25:38;;;;;;;2.25;1.45;;;20.80;53.50;;;;;;5068971;28;20039;-65
2024/03/26 13:28:23;;;;;;;2.78;2.10;;;20.90;53.50;;;;;;5066730;28;20116;-61
2024/03/26 13:31:08;;;;;;;1.80;1.30;;;20.90;53.20;;;;;;5069508;28;20500;-62
2024/03/26 13:33:53;;;;;;;2.08;1.73;;;21.00;53.20;;;;;;5072745;28;20803;-63
2024/03/26 13:36:37;;;;;;;3.33;1.40;;;21.10;53.10;;;;;;5071725;28;20335;-61
2024/03/26 13:39:22;;;;;;;2.42;1.15;;;21.20;53.20;;;;;;5063253;28;20075;-62
2024/03/26 13:42:07;;;;;;;1.90;1.30;;;21.20;52.80;;;;;;5070131;28;20047;-61
2024/03/26 13:44:52;;;;;;;2.00;1.35;;;21.30;52.80;;;;;;5065912;28;20613;-61
2024/03/26 13:47:36;;;;;;;2.40;1.42;;;21.40;52.70;;;;;;5066972;28;20054;-62
2024/03/26 13:50:21;;;;;;;2.92;1.27;;;21.40;52.40;;;;;;5064457;28;20062;-61
2024/03/26 13:53:06;;;;;;;1.80;1.20;;;21.50;52.40;;;;;;5066773;28;20051;-62
2024/03/26 13:55:50;;;;;;;2.67;1.20;;;21.60;52.30;;;;;;5063645;28;20462;-61
2024/03/26 13:58:35;;;;;;;3.63;1.23;;;21.70;52.20;;;;;;5062425;28;20059;-62
2024/03/26 14:01:20;;;;;;;1.15;1.00;;;21.80;52.10;;;;;;5067501;28;20047;-62
2024/03/26 14:04:04;;;;;;;2.72;1.27;;;21.80;51.90;;;;;;5068832;28;20035;-63
2024/03/26 14:06:51;;;;;;;1.67;1.10;;;21.90;51.90;;;;;;5080903;28;20126;-62
2024/03/26 14:09:39;;;;;;;2.80;1.02;;;21.90;51.70;;;;;;5069981;28;20031;-61
2024/03/26 14:12:24;;;;;;;1.88;1.40;;;21.90;51.50;;;;;;5070692;28;20288;-62
2024/03/26 14:15:09;;;;;;;1.40;0.95;;;22.00;51.50;;;;;;5066035;28;20555;-61
2024/03/26 14:17:54;;;;;;;1.85;1.10;;;22.00;51.30;;;;;;5067960;28;20046;-62
2024/03/26 14:20:39;;;;;;;1.70;1.40;;;22.00;51.20;;;;;;5069386;28;20541;-61